Impacts METAR Board
IDs:

KJFK - New York/Kennedy Int, NY, US

Updated at: 1900 UTC 08 Feb 2023
Potential Impact None Slight Moderate High
Time 08/07Z 08/08Z 08/09Z 08/10Z 08/11Z 08/12Z 08/13Z 08/14Z 08/15Z 08/16Z 08/17Z 08/18Z 08/19Z
Temp39 37 35 36 37 36 39 46 48 49 49 51 51
Dewpt37 36 34 34 34 33 34 34 32 30 28 28 27
Altim30.11 30.09 30.09 30.10 30.11 30.13 30.15 30.17 30.20 30.22 30.22 30.20 30.19
VIS10 8 9 8 9 8 8 10 10 10 10 10 10
CIG80 180 -- -- -- -- -- -- -- -- -- -- --
CoverOVCBKNSCTFEWFEWFEWFEWFEWFEWFEWFEWFEWFEW
FltCatVFRVFRVFRVFRVFRVFRVFRVFRVFRVFRVFRVFRVFR
WX--------------------------
WDir230240220260270270260310300330300290300
WSpd5 6 7 8 8 6 6 19 22 21 17 9 10
WGst-- -- -- -- -- -- -- 26 27 26 24 -- 18
Raw hourly METARs
KJFK 080651Z 23005KT 10SM BKN080 OVC130 04/03 A3011 RMK AO2 SLP194 T00390028
KJFK 080751Z 24006KT 8SM SCT075 BKN180 03/02 A3009 RMK AO2 SLP190 T00280022
KJFK 080851Z 22007KT 9SM SCT180 02/01 A3009 RMK AO2 SLP189 T00170011 56008
KJFK 080951Z 26008KT 8SM FEW180 02/01 A3010 RMK AO2 SLP192 T00220011
KJFK 081051Z 27008KT 9SM FEW180 03/01 A3011 RMK AO2 SLP196 T00280011
KJFK 081151Z 27006KT 8SM FEW180 02/01 A3013 RMK AO2 SLP202 70003 T00220006 10039 20011 53014
KJFK 081251Z 26006KT 8SM FEW180 FEW250 04/01 A3015 RMK AO2 SLP209 T00390011
KJFK 081351Z 31019G26KT 10SM FEW045 FEW250 08/01 A3017 RMK AO2 PK WND 32026/1342 SLP217 FROPA T00780011
KJFK 081451Z 30022G27KT 10SM FEW039 09/00 A3020 RMK AO2 PK WND 31029/1413 SLP225 T00890000 53023
KJFK 081551Z 33021G26KT 10SM FEW042 09/M01 A3022 RMK AO2 PK WND 31028/1500 SLP232 T00941011
KJFK 081651Z 30017G24KT 10SM FEW047 09/M02 A3022 RMK AO2 PK WND 31027/1604 SLP233 T00941022 $
KJFK 081751Z 29009KT 270V340 10SM FEW050 FEW250 11/M02 A3020 RMK AO2 SLP227 T01061022 10111 20022 50002 $
KJFK 081851Z 30010G18KT 10SM FEW250 11/M03 A3019 RMK AO2 SLP224 T01061028 $



Page loaded:  19:20 UTC  |   11:20 AM Pacific  |   12:20 PM Mountain  |   01:20 PM Central  |   02:20 PM Eastern

 

ADVISORIES

FORECASTS

FORECASTS

OBSERVATIONS

USER TOOLS

ABOUT US